sensor_id;sensor_type;location;lat;lon;timestamp;P1;durP1;ratioP1;P2;durP2;ratioP2
57828;SDS011;43657;52.698;6.314;2023-05-10T00:02:23;204.55;;;56.42;;
57828;SDS011;43657;52.698;6.314;2023-05-10T00:04:49;120.85;;;50.13;;
57828;SDS011;43657;52.698;6.314;2023-05-10T00:07:15;130.65;;;51.22;;
57828;SDS011;43657;52.698;6.314;2023-05-10T00:09:42;98.22;;;46.80;;
57828;SDS011;43657;52.698;6.314;2023-05-10T00:12:08;96.45;;;45.25;;
57828;SDS011;43657;52.698;6.314;2023-05-10T00:14:34;210.73;;;53.30;;
57828;SDS011;43657;52.698;6.314;2023-05-10T00:16:59;95.60;;;43.83;;
57828;SDS011;43657;52.698;6.314;2023-05-10T00:19:25;123.70;;;45.47;;
57828;SDS011;43657;52.698;6.314;2023-05-10T00:21:51;84.70;;;40.55;;
57828;SDS011;43657;52.698;6.314;2023-05-10T00:24:16;123.13;;;44.40;;
57828;SDS011;43657;52.698;6.314;2023-05-10T00:26:42;100.72;;;40.90;;
57828;SDS011;43657;52.698;6.314;2023-05-10T00:29:07;80.72;;;38.35;;
57828;SDS011;43657;52.698;6.314;2023-05-10T00:31:33;82.57;;;36.30;;
57828;SDS011;43657;52.698;6.314;2023-05-10T00:33:58;86.50;;;37.38;;
57828;SDS011;43657;52.698;6.314;2023-05-10T00:36:24;98.47;;;38.90;;
57828;SDS011;43657;52.698;6.314;2023-05-10T00:38:49;65.47;;;34.75;;
57828;SDS011;43657;52.698;6.314;2023-05-10T00:41:15;96.25;;;36.10;;
57828;SDS011;43657;52.698;6.314;2023-05-10T00:43:40;113.07;;;39.45;;
57828;SDS011;43657;52.698;6.314;2023-05-10T00:46:06;59.63;;;33.13;;
57828;SDS011;43657;52.698;6.314;2023-05-10T00:48:32;79.15;;;34.67;;
57828;SDS011;43657;52.698;6.314;2023-05-10T00:50:59;74.90;;;32.60;;
57828;SDS011;43657;52.698;6.314;2023-05-10T00:53:25;71.40;;;33.78;;
57828;SDS011;43657;52.698;6.314;2023-05-10T00:55:51;82.72;;;33.33;;
57828;SDS011;43657;52.698;6.314;2023-05-10T00:58:17;60.45;;;31.15;;
57828;SDS011;43657;52.698;6.314;2023-05-10T01:00:43;59.10;;;30.25;;
57828;SDS011;43657;52.698;6.314;2023-05-10T01:03:13;97.03;;;34.13;;
57828;SDS011;43657;52.698;6.314;2023-05-10T01:05:39;90.53;;;33.58;;
57828;SDS011;43657;52.698;6.314;2023-05-10T01:08:04;74.25;;;32.15;;
57828;SDS011;43657;52.698;6.314;2023-05-10T01:10:31;84.82;;;32.13;;
57828;SDS011;43657;52.698;6.314;2023-05-10T01:12:57;86.15;;;32.75;;
57828;SDS011;43657;52.698;6.314;2023-05-10T01:15:24;53.85;;;28.77;;
57828;SDS011;43657;52.698;6.314;2023-05-10T01:17:50;72.90;;;31.13;;
57828;SDS011;43657;52.698;6.314;2023-05-10T01:20:17;51.97;;;29.15;;
57828;SDS011;43657;52.698;6.314;2023-05-10T01:28:50;106.72;;;33.65;;
57828;SDS011;43657;52.698;6.314;2023-05-10T01:34:23;92.13;;;31.23;;
57828;SDS011;43657;52.698;6.314;2023-05-10T01:42:32;58.83;;;28.15;;
57828;SDS011;43657;52.698;6.314;2023-05-10T01:48:07;38.83;;;24.25;;
57828;SDS011;43657;52.698;6.314;2023-05-10T01:50:35;75.93;;;29.38;;
57828;SDS011;43657;52.698;6.314;2023-05-10T01:53:02;46.50;;;25.88;;
57828;SDS011;43657;52.698;6.314;2023-05-10T01:55:36;31.30;;;22.73;;
57828;SDS011;43657;52.698;6.314;2023-05-10T01:58:13;39.10;;;24.20;;
57828;SDS011;43657;52.698;6.314;2023-05-10T02:00:43;40.80;;;23.45;;
57828;SDS011;43657;52.698;6.314;2023-05-10T02:03:10;52.75;;;25.23;;
57828;SDS011;43657;52.698;6.314;2023-05-10T02:05:38;32.33;;;22.38;;
57828;SDS011;43657;52.698;6.314;2023-05-10T02:08:06;61.28;;;25.35;;
57828;SDS011;43657;52.698;6.314;2023-05-10T02:10:34;71.95;;;27.38;;
57828;SDS011;43657;52.698;6.314;2023-05-10T02:13:00;40.30;;;23.02;;
57828;SDS011;43657;52.698;6.314;2023-05-10T02:15:27;35.17;;;22.98;;
57828;SDS011;43657;52.698;6.314;2023-05-10T02:17:55;34.78;;;22.13;;
57828;SDS011;43657;52.698;6.314;2023-05-10T02:20:21;44.03;;;24.77;;
57828;SDS011;43657;52.698;6.314;2023-05-10T02:22:49;34.75;;;23.88;;
57828;SDS011;43657;52.698;6.314;2023-05-10T02:25:17;58.17;;;27.90;;
57828;SDS011;43657;52.698;6.314;2023-05-10T02:27:44;37.30;;;25.17;;
57828;SDS011;43657;52.698;6.314;2023-05-10T02:30:12;68.30;;;29.02;;
57828;SDS011;43657;52.698;6.314;2023-05-10T02:32:38;45.08;;;25.42;;
57828;SDS011;43657;52.698;6.314;2023-05-10T02:35:04;48.67;;;26.98;;
57828;SDS011;43657;52.698;6.314;2023-05-10T02:37:32;47.42;;;25.50;;
57828;SDS011;43657;52.698;6.314;2023-05-10T02:39:59;48.15;;;27.40;;
57828;SDS011;43657;52.698;6.314;2023-05-10T02:42:28;37.63;;;24.73;;
57828;SDS011;43657;52.698;6.314;2023-05-10T02:44:59;69.75;;;30.45;;
57828;SDS011;43657;52.698;6.314;2023-05-10T02:47:27;34.63;;;23.45;;
57828;SDS011;43657;52.698;6.314;2023-05-10T02:49:53;35.10;;;23.15;;
57828;SDS011;43657;52.698;6.314;2023-05-10T02:52:21;44.25;;;25.42;;
57828;SDS011;43657;52.698;6.314;2023-05-10T02:54:52;55.85;;;27.15;;
57828;SDS011;43657;52.698;6.314;2023-05-10T02:57:22;43.47;;;25.63;;
57828;SDS011;43657;52.698;6.314;2023-05-10T02:59:52;62.15;;;28.70;;
57828;SDS011;43657;52.698;6.314;2023-05-10T03:02:17;52.67;;;26.85;;
57828;SDS011;43657;52.698;6.314;2023-05-10T03:04:43;50.20;;;26.67;;
57828;SDS011;43657;52.698;6.314;2023-05-10T03:07:09;70.63;;;29.38;;
57828;SDS011;43657;52.698;6.314;2023-05-10T03:09:35;55.85;;;27.73;;
57828;SDS011;43657;52.698;6.314;2023-05-10T03:12:04;65.50;;;30.60;;
57828;SDS011;43657;52.698;6.314;2023-05-10T03:20:11;71.10;;;32.53;;
57828;SDS011;43657;52.698;6.314;2023-05-10T03:22:44;61.08;;;31.85;;
57828;SDS011;43657;52.698;6.314;2023-05-10T03:25:12;69.15;;;33.25;;
57828;SDS011;43657;52.698;6.314;2023-05-10T03:27:41;66.05;;;32.25;;
57828;SDS011;43657;52.698;6.314;2023-05-10T03:30:10;36.63;;;26.42;;
57828;SDS011;43657;52.698;6.314;2023-05-10T03:32:37;77.18;;;33.47;;
57828;SDS011;43657;52.698;6.314;2023-05-10T03:35:07;65.30;;;32.15;;
57828;SDS011;43657;52.698;6.314;2023-05-10T03:37:33;58.10;;;30.45;;
57828;SDS011;43657;52.698;6.314;2023-05-10T03:39:59;44.78;;;28.75;;
57828;SDS011;43657;52.698;6.314;2023-05-10T03:42:25;54.92;;;29.60;;
57828;SDS011;43657;52.698;6.314;2023-05-10T03:44:50;43.00;;;28.15;;
57828;SDS011;43657;52.698;6.314;2023-05-10T03:47:16;51.45;;;28.83;;
57828;SDS011;43657;52.698;6.314;2023-05-10T03:49:41;73.20;;;31.40;;
57828;SDS011;43657;52.698;6.314;2023-05-10T03:52:07;41.72;;;28.00;;
57828;SDS011;43657;52.698;6.314;2023-05-10T03:54:32;45.13;;;27.27;;
57828;SDS011;43657;52.698;6.314;2023-05-10T03:56:58;45.00;;;26.40;;
57828;SDS011;43657;52.698;6.314;2023-05-10T03:59:24;57.10;;;29.15;;
57828;SDS011;43657;52.698;6.314;2023-05-10T04:01:49;32.17;;;23.42;;
57828;SDS011;43657;52.698;6.314;2023-05-10T04:04:15;50.35;;;28.20;;
57828;SDS011;43657;52.698;6.314;2023-05-10T04:06:40;38.40;;;24.75;;
57828;SDS011;43657;52.698;6.314;2023-05-10T04:09:06;42.38;;;26.17;;
57828;SDS011;43657;52.698;6.314;2023-05-10T04:11:31;33.85;;;23.65;;
57828;SDS011;43657;52.698;6.314;2023-05-10T04:13:57;40.42;;;24.60;;
57828;SDS011;43657;52.698;6.314;2023-05-10T04:16:22;37.15;;;23.70;;
57828;SDS011;43657;52.698;6.314;2023-05-10T04:18:48;40.35;;;24.08;;
57828;SDS011;43657;52.698;6.314;2023-05-10T04:21:13;32.35;;;22.88;;
57828;SDS011;43657;52.698;6.314;2023-05-10T04:23:39;43.65;;;26.15;;
57828;SDS011;43657;52.698;6.314;2023-05-10T04:26:05;44.17;;;26.30;;
57828;SDS011;43657;52.698;6.314;2023-05-10T04:28:31;48.20;;;27.42;;
57828;SDS011;43657;52.698;6.314;2023-05-10T04:31:00;38.70;;;25.17;;
57828;SDS011;43657;52.698;6.314;2023-05-10T04:33:27;36.53;;;23.38;;
57828;SDS011;43657;52.698;6.314;2023-05-10T04:35:52;40.92;;;25.60;;
57828;SDS011;43657;52.698;6.314;2023-05-10T04:38:18;53.40;;;27.50;;
57828;SDS011;43657;52.698;6.314;2023-05-10T04:40:43;39.15;;;25.35;;
57828;SDS011;43657;52.698;6.314;2023-05-10T04:43:09;47.88;;;26.23;;
57828;SDS011;43657;52.698;6.314;2023-05-10T04:45:34;44.80;;;25.48;;
57828;SDS011;43657;52.698;6.314;2023-05-10T04:48:00;33.65;;;23.35;;
57828;SDS011;43657;52.698;6.314;2023-05-10T04:50:25;56.10;;;27.45;;
57828;SDS011;43657;52.698;6.314;2023-05-10T04:52:51;40.28;;;25.65;;
57828;SDS011;43657;52.698;6.314;2023-05-10T04:55:16;54.55;;;28.33;;
57828;SDS011;43657;52.698;6.314;2023-05-10T04:57:42;47.78;;;25.60;;
57828;SDS011;43657;52.698;6.314;2023-05-10T05:00:08;48.95;;;26.65;;
57828;SDS011;43657;52.698;6.314;2023-05-10T05:02:34;50.85;;;26.95;;
57828;SDS011;43657;52.698;6.314;2023-05-10T05:05:00;36.17;;;23.50;;
57828;SDS011;43657;52.698;6.314;2023-05-10T05:07:25;45.00;;;25.63;;
57828;SDS011;43657;52.698;6.314;2023-05-10T05:09:51;40.60;;;25.27;;
57828;SDS011;43657;52.698;6.314;2023-05-10T05:12:16;52.08;;;27.17;;
57828;SDS011;43657;52.698;6.314;2023-05-10T05:14:42;47.22;;;25.30;;
57828;SDS011;43657;52.698;6.314;2023-05-10T05:17:08;67.90;;;29.77;;
57828;SDS011;43657;52.698;6.314;2023-05-10T05:19:33;50.13;;;27.30;;
57828;SDS011;43657;52.698;6.314;2023-05-10T05:21:59;50.00;;;26.52;;
57828;SDS011;43657;52.698;6.314;2023-05-10T05:24:24;42.60;;;23.92;;
57828;SDS011;43657;52.698;6.314;2023-05-10T05:26:50;53.60;;;27.00;;
57828;SDS011;43657;52.698;6.314;2023-05-10T05:29:16;47.63;;;25.38;;
57828;SDS011;43657;52.698;6.314;2023-05-10T05:31:41;40.67;;;24.77;;
57828;SDS011;43657;52.698;6.314;2023-05-10T05:34:07;35.28;;;23.30;;
57828;SDS011;43657;52.698;6.314;2023-05-10T05:36:35;52.05;;;26.52;;
57828;SDS011;43657;52.698;6.314;2023-05-10T05:39:03;40.70;;;23.25;;
57828;SDS011;43657;52.698;6.314;2023-05-10T05:41:28;47.03;;;25.52;;
57828;SDS011;43657;52.698;6.314;2023-05-10T05:43:54;67.97;;;28.23;;
57828;SDS011;43657;52.698;6.314;2023-05-10T05:46:19;45.25;;;25.05;;
57828;SDS011;43657;52.698;6.314;2023-05-10T05:48:45;50.17;;;25.17;;
57828;SDS011;43657;52.698;6.314;2023-05-10T05:51:11;44.47;;;24.38;;
57828;SDS011;43657;52.698;6.314;2023-05-10T05:53:36;62.63;;;26.55;;
57828;SDS011;43657;52.698;6.314;2023-05-10T05:56:02;69.95;;;28.35;;
57828;SDS011;43657;52.698;6.314;2023-05-10T05:58:28;37.33;;;22.83;;
57828;SDS011;43657;52.698;6.314;2023-05-10T06:00:54;57.53;;;25.65;;
57828;SDS011;43657;52.698;6.314;2023-05-10T06:03:19;33.55;;;22.35;;
57828;SDS011;43657;52.698;6.314;2023-05-10T06:05:45;52.30;;;25.48;;
57828;SDS011;43657;52.698;6.314;2023-05-10T06:08:11;42.15;;;22.83;;
57828;SDS011;43657;52.698;6.314;2023-05-10T06:10:37;58.65;;;26.23;;
57828;SDS011;43657;52.698;6.314;2023-05-10T06:13:02;39.83;;;21.77;;
57828;SDS011;43657;52.698;6.314;2023-05-10T06:15:28;44.88;;;23.17;;
57828;SDS011;43657;52.698;6.314;2023-05-10T06:17:53;43.30;;;22.33;;
57828;SDS011;43657;52.698;6.314;2023-05-10T06:20:19;41.13;;;22.70;;
57828;SDS011;43657;52.698;6.314;2023-05-10T06:22:44;31.80;;;20.27;;
57828;SDS011;43657;52.698;6.314;2023-05-10T06:25:10;48.55;;;23.05;;
57828;SDS011;43657;52.698;6.314;2023-05-10T06:27:36;61.05;;;25.27;;
57828;SDS011;43657;52.698;6.314;2023-05-10T06:30:02;39.22;;;21.77;;
57828;SDS011;43657;52.698;6.314;2023-05-10T06:32:27;39.13;;;21.75;;
57828;SDS011;43657;52.698;6.314;2023-05-10T06:34:53;56.85;;;24.70;;
57828;SDS011;43657;52.698;6.314;2023-05-10T06:37:19;40.65;;;22.10;;
57828;SDS011;43657;52.698;6.314;2023-05-10T06:39:44;43.30;;;22.92;;
57828;SDS011;43657;52.698;6.314;2023-05-10T06:42:10;37.42;;;21.20;;
57828;SDS011;43657;52.698;6.314;2023-05-10T06:44:35;35.13;;;20.52;;
57828;SDS011;43657;52.698;6.314;2023-05-10T06:47:01;42.55;;;22.00;;
57828;SDS011;43657;52.698;6.314;2023-05-10T06:49:26;37.30;;;19.95;;
57828;SDS011;43657;52.698;6.314;2023-05-10T06:51:52;30.67;;;19.27;;
57828;SDS011;43657;52.698;6.314;2023-05-10T06:54:17;23.85;;;17.42;;
57828;SDS011;43657;52.698;6.314;2023-05-10T06:56:43;41.10;;;20.77;;
57828;SDS011;43657;52.698;6.314;2023-05-10T06:59:08;26.55;;;17.42;;
57828;SDS011;43657;52.698;6.314;2023-05-10T07:01:34;28.08;;;17.75;;
57828;SDS011;43657;52.698;6.314;2023-05-10T07:04:00;30.88;;;17.85;;
57828;SDS011;43657;52.698;6.314;2023-05-10T07:06:25;26.85;;;16.88;;
57828;SDS011;43657;52.698;6.314;2023-05-10T07:08:51;21.70;;;15.82;;
57828;SDS011;43657;52.698;6.314;2023-05-10T07:11:17;22.85;;;16.85;;
57828;SDS011;43657;52.698;6.314;2023-05-10T07:13:42;30.48;;;17.67;;
57828;SDS011;43657;52.698;6.314;2023-05-10T07:16:09;22.50;;;15.43;;
57828;SDS011;43657;52.698;6.314;2023-05-10T07:18:35;21.48;;;15.35;;
57828;SDS011;43657;52.698;6.314;2023-05-10T07:21:00;26.25;;;15.88;;
57828;SDS011;43657;52.698;6.314;2023-05-10T07:23:26;21.55;;;15.40;;
57828;SDS011;43657;52.698;6.314;2023-05-10T07:25:52;25.05;;;15.70;;
57828;SDS011;43657;52.698;6.314;2023-05-10T07:28:18;25.65;;;15.90;;
57828;SDS011;43657;52.698;6.314;2023-05-10T07:30:44;36.10;;;17.48;;
57828;SDS011;43657;52.698;6.314;2023-05-10T07:33:11;17.23;;;13.13;;
57828;SDS011;43657;52.698;6.314;2023-05-10T07:35:38;21.77;;;14.38;;
57828;SDS011;43657;52.698;6.314;2023-05-10T07:38:04;20.25;;;14.57;;
57828;SDS011;43657;52.698;6.314;2023-05-10T07:40:29;24.73;;;16.63;;
57828;SDS011;43657;52.698;6.314;2023-05-10T07:42:55;30.05;;;17.80;;
57828;SDS011;43657;52.698;6.314;2023-05-10T07:45:21;19.50;;;14.15;;
57828;SDS011;43657;52.698;6.314;2023-05-10T07:47:47;14.93;;;12.02;;
57828;SDS011;43657;52.698;6.314;2023-05-10T07:50:13;16.92;;;10.55;;
57828;SDS011;43657;52.698;6.314;2023-05-10T07:52:39;13.15;;;10.60;;
57828;SDS011;43657;52.698;6.314;2023-05-10T07:55:05;15.75;;;10.55;;
57828;SDS011;43657;52.698;6.314;2023-05-10T07:57:32;11.55;;;8.73;;
57828;SDS011;43657;52.698;6.314;2023-05-10T07:59:58;11.00;;;8.55;;
57828;SDS011;43657;52.698;6.314;2023-05-10T08:02:24;9.07;;;7.40;;
57828;SDS011;43657;52.698;6.314;2023-05-10T08:04:50;8.55;;;6.82;;
57828;SDS011;43657;52.698;6.314;2023-05-10T08:07:16;9.05;;;6.40;;
57828;SDS011;43657;52.698;6.314;2023-05-10T08:09:42;9.02;;;7.72;;
57828;SDS011;43657;52.698;6.314;2023-05-10T08:12:07;7.30;;;6.47;;
57828;SDS011;43657;52.698;6.314;2023-05-10T08:14:33;8.98;;;7.03;;
57828;SDS011;43657;52.698;6.314;2023-05-10T08:16:58;7.03;;;6.30;;
57828;SDS011;43657;52.698;6.314;2023-05-10T08:19:24;6.75;;;5.78;;
57828;SDS011;43657;52.698;6.314;2023-05-10T08:21:50;8.77;;;7.15;;
57828;SDS011;43657;52.698;6.314;2023-05-10T08:24:15;8.50;;;7.70;;
57828;SDS011;43657;52.698;6.314;2023-05-10T08:26:41;7.18;;;6.57;;
57828;SDS011;43657;52.698;6.314;2023-05-10T08:29:07;7.40;;;6.70;;
57828;SDS011;43657;52.698;6.314;2023-05-10T08:31:32;9.05;;;8.10;;
57828;SDS011;43657;52.698;6.314;2023-05-10T08:33:58;8.43;;;7.63;;
57828;SDS011;43657;52.698;6.314;2023-05-10T08:36:23;8.75;;;7.78;;
57828;SDS011;43657;52.698;6.314;2023-05-10T08:38:52;9.63;;;8.63;;
57828;SDS011;43657;52.698;6.314;2023-05-10T08:41:22;10.43;;;8.90;;
57828;SDS011;43657;52.698;6.314;2023-05-10T08:43:50;9.93;;;8.93;;
57828;SDS011;43657;52.698;6.314;2023-05-10T08:46:17;9.13;;;8.23;;
57828;SDS011;43657;52.698;6.314;2023-05-10T08:48:44;9.80;;;8.50;;
57828;SDS011;43657;52.698;6.314;2023-05-10T08:51:12;11.27;;;10.02;;
57828;SDS011;43657;52.698;6.314;2023-05-10T08:53:39;9.07;;;8.20;;
57828;SDS011;43657;52.698;6.314;2023-05-10T08:56:05;9.32;;;8.38;;
57828;SDS011;43657;52.698;6.314;2023-05-10T08:58:31;8.63;;;7.75;;
57828;SDS011;43657;52.698;6.314;2023-05-10T09:00:57;10.35;;;9.35;;
57828;SDS011;43657;52.698;6.314;2023-05-10T09:03:24;10.80;;;9.80;;
57828;SDS011;43657;52.698;6.314;2023-05-10T09:05:50;10.00;;;9.07;;
57828;SDS011;43657;52.698;6.314;2023-05-10T09:08:15;11.50;;;9.95;;
57828;SDS011;43657;52.698;6.314;2023-05-10T09:10:42;10.85;;;9.75;;
57828;SDS011;43657;52.698;6.314;2023-05-10T09:13:10;10.95;;;9.65;;
57828;SDS011;43657;52.698;6.314;2023-05-10T09:15:36;10.02;;;9.07;;
57828;SDS011;43657;52.698;6.314;2023-05-10T09:18:02;10.27;;;9.35;;
57828;SDS011;43657;52.698;6.314;2023-05-10T09:20:29;11.38;;;10.27;;
57828;SDS011;43657;52.698;6.314;2023-05-10T09:22:54;12.40;;;10.85;;
57828;SDS011;43657;52.698;6.314;2023-05-10T09:25:20;13.20;;;11.90;;
57828;SDS011;43657;52.698;6.314;2023-05-10T09:27:46;13.13;;;11.73;;
57828;SDS011;43657;52.698;6.314;2023-05-10T09:30:16;14.50;;;12.27;;
57828;SDS011;43657;52.698;6.314;2023-05-10T09:32:47;14.77;;;13.27;;
57828;SDS011;43657;52.698;6.314;2023-05-10T09:35:14;18.55;;;14.52;;
57828;SDS011;43657;52.698;6.314;2023-05-10T09:37:45;13.73;;;12.40;;
57828;SDS011;43657;52.698;6.314;2023-05-10T09:40:16;15.40;;;13.90;;
57828;SDS011;43657;52.698;6.314;2023-05-10T09:42:59;16.45;;;14.85;;
57828;SDS011;43657;52.698;6.314;2023-05-10T09:45:30;14.90;;;13.50;;
57828;SDS011;43657;52.698;6.314;2023-05-10T09:47:56;14.55;;;13.15;;
57828;SDS011;43657;52.698;6.314;2023-05-10T09:50:24;15.35;;;13.85;;
57828;SDS011;43657;52.698;6.314;2023-05-10T09:55:26;13.75;;;12.43;;
57828;SDS011;43657;52.698;6.314;2023-05-10T09:58:06;14.23;;;12.85;;
57828;SDS011;43657;52.698;6.314;2023-05-10T10:00:39;15.98;;;14.50;;
57828;SDS011;43657;52.698;6.314;2023-05-10T10:03:05;13.93;;;12.63;;
57828;SDS011;43657;52.698;6.314;2023-05-10T10:05:36;14.15;;;12.85;;
57828;SDS011;43657;52.698;6.314;2023-05-10T10:08:05;13.48;;;12.23;;
57828;SDS011;43657;52.698;6.314;2023-05-10T10:10:31;16.25;;;14.73;;
57828;SDS011;43657;52.698;6.314;2023-05-10T10:12:58;15.07;;;13.52;;
57828;SDS011;43657;52.698;6.314;2023-05-10T10:15:24;15.40;;;14.00;;
57828;SDS011;43657;52.698;6.314;2023-05-10T10:17:51;17.15;;;15.52;;
57828;SDS011;43657;52.698;6.314;2023-05-10T10:20:20;17.35;;;15.65;;
57828;SDS011;43657;52.698;6.314;2023-05-10T10:22:50;17.02;;;15.43;;
57828;SDS011;43657;52.698;6.314;2023-05-10T10:25:20;16.13;;;14.52;;
57828;SDS011;43657;52.698;6.314;2023-05-10T10:30:39;14.68;;;13.32;;
57828;SDS011;43657;52.698;6.314;2023-05-10T10:35:43;15.15;;;13.75;;
57828;SDS011;43657;52.698;6.314;2023-05-10T10:38:20;16.27;;;14.77;;
57828;SDS011;43657;52.698;6.314;2023-05-10T10:40:50;14.77;;;13.40;;
57828;SDS011;43657;52.698;6.314;2023-05-10T10:43:35;15.57;;;14.15;;
57828;SDS011;43657;52.698;6.314;2023-05-10T10:46:12;18.30;;;16.45;;
57828;SDS011;43657;52.698;6.314;2023-05-10T10:49:08;17.23;;;15.50;;
57828;SDS011;43657;52.698;6.314;2023-05-10T10:51:39;17.50;;;16.00;;
57828;SDS011;43657;52.698;6.314;2023-05-10T10:54:11;17.58;;;15.73;;
57828;SDS011;43657;52.698;6.314;2023-05-10T10:56:39;15.35;;;13.95;;
57828;SDS011;43657;52.698;6.314;2023-05-10T10:59:05;15.52;;;14.13;;
57828;SDS011;43657;52.698;6.314;2023-05-10T11:01:33;18.60;;;16.80;;
57828;SDS011;43657;52.698;6.314;2023-05-10T11:06:34;18.63;;;16.83;;
57828;SDS011;43657;52.698;6.314;2023-05-10T11:09:08;18.55;;;16.70;;
57828;SDS011;43657;52.698;6.314;2023-05-10T11:11:36;16.52;;;14.98;;
57828;SDS011;43657;52.698;6.314;2023-05-10T11:14:14;16.42;;;14.82;;
57828;SDS011;43657;52.698;6.314;2023-05-10T11:16:47;16.50;;;14.93;;
57828;SDS011;43657;52.698;6.314;2023-05-10T11:19:29;15.65;;;14.25;;
57828;SDS011;43657;52.698;6.314;2023-05-10T11:24:28;18.75;;;17.05;;
57828;SDS011;43657;52.698;6.314;2023-05-10T11:26:54;19.65;;;17.85;;
57828;SDS011;43657;52.698;6.314;2023-05-10T11:29:21;19.50;;;17.70;;
57828;SDS011;43657;52.698;6.314;2023-05-10T11:31:51;22.50;;;20.40;;
57828;SDS011;43657;52.698;6.314;2023-05-10T11:34:26;23.30;;;20.95;;
57828;SDS011;43657;52.698;6.314;2023-05-10T11:37:01;22.88;;;20.60;;
57828;SDS011;43657;52.698;6.314;2023-05-10T11:39:27;24.10;;;21.70;;
57828;SDS011;43657;52.698;6.314;2023-05-10T11:41:54;24.27;;;21.77;;
57828;SDS011;43657;52.698;6.314;2023-05-10T11:44:31;24.25;;;21.85;;
57828;SDS011;43657;52.698;6.314;2023-05-10T11:47:02;24.05;;;21.55;;
57828;SDS011;43657;52.698;6.314;2023-05-10T11:49:28;24.10;;;21.90;;
57828;SDS011;43657;52.698;6.314;2023-05-10T11:52:03;25.70;;;23.33;;
57828;SDS011;43657;52.698;6.314;2023-05-10T11:54:32;23.58;;;21.48;;
57828;SDS011;43657;52.698;6.314;2023-05-10T11:57:06;23.10;;;20.90;;
57828;SDS011;43657;52.698;6.314;2023-05-10T11:59:35;22.83;;;20.65;;
57828;SDS011;43657;52.698;6.314;2023-05-10T12:02:01;21.48;;;19.38;;
57828;SDS011;43657;52.698;6.314;2023-05-10T12:04:29;21.00;;;19.00;;
57828;SDS011;43657;52.698;6.314;2023-05-10T12:06:58;21.48;;;19.40;;
57828;SDS011;43657;52.698;6.314;2023-05-10T12:09:29;23.05;;;20.65;;
57828;SDS011;43657;52.698;6.314;2023-05-10T12:12:06;19.90;;;18.00;;
57828;SDS011;43657;52.698;6.314;2023-05-10T12:14:38;19.80;;;17.98;;
57828;SDS011;43657;52.698;6.314;2023-05-10T12:17:03;19.77;;;17.88;;
57828;SDS011;43657;52.698;6.314;2023-05-10T12:19:38;20.48;;;18.58;;
57828;SDS011;43657;52.698;6.314;2023-05-10T12:22:15;19.10;;;17.40;;
57828;SDS011;43657;52.698;6.314;2023-05-10T12:24:53;21.42;;;19.23;;
57828;SDS011;43657;52.698;6.314;2023-05-10T12:27:23;18.42;;;16.83;;
57828;SDS011;43657;52.698;6.314;2023-05-10T12:32:36;17.15;;;15.38;;
57828;SDS011;43657;52.698;6.314;2023-05-10T12:35:14;14.60;;;13.18;;
57828;SDS011;43657;52.698;6.314;2023-05-10T12:37:47;16.00;;;14.40;;
57828;SDS011;43657;52.698;6.314;2023-05-10T12:40:19;16.20;;;14.63;;
57828;SDS011;43657;52.698;6.314;2023-05-10T12:42:48;16.17;;;14.57;;
57828;SDS011;43657;52.698;6.314;2023-05-10T12:45:13;17.50;;;15.70;;
57828;SDS011;43657;52.698;6.314;2023-05-10T12:47:42;16.13;;;14.52;;
57828;SDS011;43657;52.698;6.314;2023-05-10T12:50:08;17.15;;;15.43;;
57828;SDS011;43657;52.698;6.314;2023-05-10T12:52:34;16.27;;;14.68;;
57828;SDS011;43657;52.698;6.314;2023-05-10T12:55:02;15.48;;;13.88;;
57828;SDS011;43657;52.698;6.314;2023-05-10T12:57:34;14.52;;;13.20;;
57828;SDS011;43657;52.698;6.314;2023-05-10T13:00:02;14.38;;;12.95;;
57828;SDS011;43657;52.698;6.314;2023-05-10T13:02:32;17.50;;;15.77;;
57828;SDS011;43657;52.698;6.314;2023-05-10T13:05:00;16.35;;;14.70;;
57828;SDS011;43657;52.698;6.314;2023-05-10T13:07:29;14.90;;;13.60;;
57828;SDS011;43657;52.698;6.314;2023-05-10T13:09:55;16.23;;;14.70;;
57828;SDS011;43657;52.698;6.314;2023-05-10T13:12:20;16.25;;;14.55;;
57828;SDS011;43657;52.698;6.314;2023-05-10T13:14:46;15.68;;;14.07;;
57828;SDS011;43657;52.698;6.314;2023-05-10T13:17:12;14.23;;;12.82;;
57828;SDS011;43657;52.698;6.314;2023-05-10T13:19:37;16.08;;;14.52;;
57828;SDS011;43657;52.698;6.314;2023-05-10T13:22:03;14.40;;;13.02;;
57828;SDS011;43657;52.698;6.314;2023-05-10T13:24:34;15.07;;;13.68;;
57828;SDS011;43657;52.698;6.314;2023-05-10T13:27:06;15.52;;;14.02;;
57828;SDS011;43657;52.698;6.314;2023-05-10T13:29:34;14.93;;;13.43;;
57828;SDS011;43657;52.698;6.314;2023-05-10T13:32:00;15.02;;;13.63;;
57828;SDS011;43657;52.698;6.314;2023-05-10T13:34:34;16.02;;;14.50;;
57828;SDS011;43657;52.698;6.314;2023-05-10T13:37:00;16.05;;;14.45;;
57828;SDS011;43657;52.698;6.314;2023-05-10T13:39:37;16.75;;;15.35;;
57828;SDS011;43657;52.698;6.314;2023-05-10T13:42:17;17.13;;;15.43;;
57828;SDS011;43657;52.698;6.314;2023-05-10T13:44:45;19.70;;;17.60;;
57828;SDS011;43657;52.698;6.314;2023-05-10T13:47:11;23.65;;;19.67;;
57828;SDS011;43657;52.698;6.314;2023-05-10T13:49:39;23.05;;;19.90;;
57828;SDS011;43657;52.698;6.314;2023-05-10T13:52:10;20.13;;;17.98;;
57828;SDS011;43657;52.698;6.314;2023-05-10T13:54:37;22.77;;;19.75;;
57828;SDS011;43657;52.698;6.314;2023-05-10T13:57:06;21.27;;;19.08;;
57828;SDS011;43657;52.698;6.314;2023-05-10T13:59:39;28.27;;;23.27;;
57828;SDS011;43657;52.698;6.314;2023-05-10T14:02:07;22.88;;;20.40;;
57828;SDS011;43657;52.698;6.314;2023-05-10T14:04:35;24.02;;;21.23;;
57828;SDS011;43657;52.698;6.314;2023-05-10T14:07:01;23.50;;;21.00;;
57828;SDS011;43657;52.698;6.314;2023-05-10T14:09:30;25.00;;;21.73;;
57828;SDS011;43657;52.698;6.314;2023-05-10T14:11:57;27.48;;;22.42;;
57828;SDS011;43657;52.698;6.314;2023-05-10T14:14:23;24.33;;;21.73;;
57828;SDS011;43657;52.698;6.314;2023-05-10T14:16:50;24.02;;;21.45;;
57828;SDS011;43657;52.698;6.314;2023-05-10T14:19:22;22.15;;;19.77;;
57828;SDS011;43657;52.698;6.314;2023-05-10T14:21:52;23.50;;;21.00;;
57828;SDS011;43657;52.698;6.314;2023-05-10T14:24:17;23.33;;;20.80;;
57828;SDS011;43657;52.698;6.314;2023-05-10T14:26:46;22.75;;;20.45;;
57828;SDS011;43657;52.698;6.314;2023-05-10T14:29:11;22.17;;;19.98;;
57828;SDS011;43657;52.698;6.314;2023-05-10T14:31:40;23.35;;;20.95;;
57828;SDS011;43657;52.698;6.314;2023-05-10T14:34:09;23.08;;;20.73;;
57828;SDS011;43657;52.698;6.314;2023-05-10T14:36:34;21.08;;;18.98;;
57828;SDS011;43657;52.698;6.314;2023-05-10T14:39:01;21.70;;;19.38;;
57828;SDS011;43657;52.698;6.314;2023-05-10T14:41:28;21.60;;;19.48;;
57828;SDS011;43657;52.698;6.314;2023-05-10T14:43:57;22.08;;;19.85;;
57828;SDS011;43657;52.698;6.314;2023-05-10T14:46:31;20.10;;;18.10;;
57828;SDS011;43657;52.698;6.314;2023-05-10T14:48:57;18.92;;;17.05;;
57828;SDS011;43657;52.698;6.314;2023-05-10T14:51:31;16.60;;;15.00;;
57828;SDS011;43657;52.698;6.314;2023-05-10T14:54:00;16.23;;;14.63;;
57828;SDS011;43657;52.698;6.314;2023-05-10T14:56:25;16.27;;;14.77;;
57828;SDS011;43657;52.698;6.314;2023-05-10T14:58:54;15.68;;;14.18;;
57828;SDS011;43657;52.698;6.314;2023-05-10T15:01:23;16.35;;;14.65;;
57828;SDS011;43657;52.698;6.314;2023-05-10T15:03:57;15.30;;;13.80;;
57828;SDS011;43657;52.698;6.314;2023-05-10T15:06:37;16.05;;;14.45;;